createdAt,value
2022-09-28T00:01:08.422Z,100.00
2022-09-28T00:03:36.820Z,100.00
2022-09-28T00:06:06.273Z,100.00
2022-09-28T00:08:35.220Z,100.00
2022-09-28T00:11:04.143Z,100.00
2022-09-28T00:13:33.130Z,100.00
2022-09-28T00:16:04.333Z,100.00
2022-09-28T00:18:32.487Z,100.00
2022-09-28T00:21:14.870Z,100.00
2022-09-28T00:23:57.686Z,100.00
2022-09-28T00:26:26.212Z,100.00
2022-09-28T00:28:54.595Z,100.00
2022-09-28T00:31:25.337Z,100.00
2022-09-28T00:33:55.462Z,100.00
2022-09-28T00:36:23.741Z,100.00
2022-09-28T00:38:52.631Z,100.00
2022-09-28T00:41:20.760Z,100.00
2022-09-28T00:43:48.870Z,100.00
2022-09-28T00:46:20.271Z,100.00
2022-09-28T00:48:54.263Z,100.00
2022-09-28T00:51:22.801Z,100.00
2022-09-28T00:53:52.306Z,100.00
2022-09-28T00:56:22.346Z,100.00
2022-09-28T00:58:53.612Z,100.00
2022-09-28T01:01:22.083Z,100.00
2022-09-28T01:03:51.546Z,100.00
2022-09-28T01:06:21.756Z,100.00
2022-09-28T01:08:52.166Z,100.00
2022-09-28T01:11:20.606Z,100.00
2022-09-28T01:13:50.308Z,100.00
2022-09-28T01:16:24.850Z,100.00
2022-09-28T01:19:01.136Z,100.00
2022-09-28T01:21:29.260Z,100.00
2022-09-28T01:24:12.760Z,100.00
2022-09-28T01:27:08.777Z,100.00
2022-09-28T01:29:46.540Z,100.00
2022-09-28T01:32:25.106Z,100.00
2022-09-28T01:34:58.869Z,100.00
2022-09-28T01:37:43.930Z,100.00
2022-09-28T01:40:14.049Z,100.00
2022-09-28T01:42:46.316Z,100.00
2022-09-28T01:45:18.447Z,100.00
2022-09-28T01:47:47.795Z,100.00
2022-09-28T01:50:17.835Z,100.00
2022-09-28T01:52:50.569Z,100.00
2022-09-28T01:55:22.459Z,100.00
2022-09-28T01:57:54.557Z,100.00
2022-09-28T02:00:24.229Z,100.00
2022-09-28T02:02:55.837Z,100.00
2022-09-28T02:05:27.635Z,100.00
2022-09-28T02:07:59.775Z,100.00
2022-09-28T02:10:31.738Z,100.00
2022-09-28T02:13:03.228Z,100.00
2022-09-28T02:15:36.970Z,100.00
2022-09-28T02:18:05.376Z,100.00
2022-09-28T02:20:34.126Z,100.00
2022-09-28T02:23:03.429Z,100.00
2022-09-28T02:25:36.467Z,100.00
2022-09-28T02:28:07.542Z,100.00
2022-09-28T02:30:38.277Z,100.00
2022-09-28T02:33:10.767Z,100.00
2022-09-28T02:35:39.697Z,100.00
2022-09-28T02:38:07.810Z,100.00
2022-09-28T02:40:38.972Z,100.00
2022-09-28T02:43:16.127Z,100.00
2022-09-28T02:45:52.653Z,100.00
2022-09-28T02:48:44.032Z,100.00
2022-09-28T02:51:20.537Z,100.00
2022-09-28T02:54:18.824Z,100.00
2022-09-28T02:57:00.107Z,100.00
2022-09-28T02:59:38.518Z,100.00
2022-09-28T03:02:12.848Z,100.00
2022-09-28T03:04:45.988Z,100.00
2022-09-28T03:07:19.058Z,100.00
2022-09-28T03:09:54.367Z,100.00
2022-09-28T03:12:24.843Z,100.00
2022-09-28T03:15:10.555Z,100.00
2022-09-28T03:17:38.930Z,100.00
2022-09-28T03:20:08.299Z,100.00
2022-09-28T03:22:36.357Z,100.00
2022-09-28T03:25:05.087Z,100.00
2022-09-28T03:27:33.375Z,100.00
2022-09-28T03:30:01.869Z,100.00
2022-09-28T03:32:31.337Z,100.00
2022-09-28T03:34:59.513Z,100.00
2022-09-28T03:37:27.919Z,100.00
2022-09-28T03:39:56.068Z,100.00
2022-09-28T03:42:24.196Z,100.00
2022-09-28T03:44:52.331Z,100.00
2022-09-28T03:47:21.507Z,100.00
2022-09-28T03:49:51.189Z,100.00
2022-09-28T03:52:19.656Z,100.00
2022-09-28T03:54:49.410Z,100.00
2022-09-28T03:57:17.617Z,100.00
2022-09-28T03:59:45.774Z,100.00
2022-09-28T04:02:13.892Z,100.00
2022-09-28T04:04:41.998Z,100.00
2022-09-28T04:07:11.487Z,100.00
2022-09-28T04:09:39.635Z,100.00
2022-09-28T04:12:07.988Z,100.00
2022-09-28T04:14:36.147Z,100.00
2022-09-28T04:17:05.156Z,100.00
2022-09-28T04:19:33.278Z,100.00
2022-09-28T04:22:01.839Z,100.00
2022-09-28T04:24:31.344Z,100.00
2022-09-28T04:27:19.467Z,100.00
2022-09-28T04:29:46.617Z,100.00
2022-09-28T04:32:14.708Z,100.00
2022-09-28T04:34:44.307Z,100.00
2022-09-28T04:37:12.769Z,100.00
2022-09-28T04:39:46.165Z,100.00
2022-09-28T04:42:16.501Z,100.00
2022-09-28T04:44:44.527Z,100.00
2022-09-28T04:47:12.607Z,100.00
2022-09-28T04:49:40.826Z,100.00
2022-09-28T04:52:09.494Z,100.00
2022-09-28T04:54:37.594Z,100.00
2022-09-28T04:57:07.168Z,100.00
2022-09-28T04:59:36.415Z,100.00
2022-09-28T05:02:04.646Z,100.00
2022-09-28T05:04:32.897Z,100.00
2022-09-28T05:07:01.047Z,100.00
2022-09-28T05:09:29.106Z,100.00
2022-09-28T05:11:57.197Z,100.00
2022-09-28T05:14:26.867Z,100.00
2022-09-28T05:16:55.069Z,100.00
2022-09-28T05:19:23.217Z,100.00
2022-09-28T05:21:51.357Z,100.00
2022-09-28T05:24:19.487Z,100.00
2022-09-28T05:26:47.587Z,100.00
2022-09-28T05:29:15.837Z,100.00
2022-09-28T05:31:45.320Z,100.00
2022-09-28T05:34:13.556Z,100.00
2022-09-28T05:36:42.917Z,100.00
2022-09-28T05:39:11.126Z,100.00
2022-09-28T05:41:39.254Z,100.00
2022-09-28T05:44:07.419Z,100.00
2022-09-28T05:46:35.557Z,100.00
2022-09-28T05:49:05.185Z,100.00
2022-09-28T05:51:33.229Z,100.00
2022-09-28T05:54:05.945Z,100.00
2022-09-28T05:56:34.387Z,100.00
2022-09-28T05:59:05.427Z,100.00
2022-09-28T06:01:33.765Z,100.00
2022-09-28T06:04:02.395Z,100.00
2022-09-28T06:06:31.946Z,100.00
2022-09-28T06:09:00.008Z,100.00
2022-09-28T06:11:28.283Z,100.00
2022-09-28T06:13:56.635Z,100.00
2022-09-28T06:16:25.798Z,100.00
2022-09-28T06:18:53.957Z,100.00
2022-09-28T06:21:22.339Z,100.00
2022-09-28T06:23:52.145Z,100.00
2022-09-28T06:26:20.447Z,100.00
2022-09-28T06:28:48.580Z,100.00
2022-09-28T06:31:16.765Z,100.00
2022-09-28T06:33:44.948Z,100.00
2022-09-28T06:36:13.928Z,100.00
2022-09-28T06:38:42.066Z,100.00
2022-09-28T06:41:12.517Z,100.00
2022-09-28T06:43:40.954Z,100.00
2022-09-28T06:46:10.655Z,100.00
2022-09-28T06:48:38.807Z,100.00
2022-09-28T06:51:07.267Z,100.00
2022-09-28T06:53:35.974Z,100.00
2022-09-28T06:56:05.069Z,100.00
2022-09-28T06:58:34.638Z,100.00
2022-09-28T07:01:02.818Z,100.00
2022-09-28T07:03:31.057Z,100.00
2022-09-28T07:05:59.215Z,100.00
2022-09-28T07:08:29.095Z,100.00
2022-09-28T07:10:57.510Z,100.00
2022-09-28T07:16:19.609Z,100.00
2022-09-28T07:18:49.801Z,100.00
2022-09-28T07:21:28.000Z,100.00
2022-09-28T07:23:57.566Z,100.00
2022-09-28T07:26:25.866Z,100.00
2022-09-28T07:28:56.077Z,100.00
2022-09-28T07:31:26.557Z,100.00
2022-09-28T07:33:55.542Z,100.00
2022-09-28T07:36:23.716Z,100.00
2022-09-28T07:38:51.827Z,100.00
2022-09-28T07:41:27.445Z,100.00
2022-09-28T07:43:55.628Z,100.00
2022-09-28T07:46:25.262Z,100.00
2022-09-28T07:48:53.894Z,100.00
2022-09-28T07:51:22.327Z,100.00
2022-09-28T07:53:50.490Z,100.00
2022-09-28T07:56:20.535Z,100.00
2022-09-28T07:58:49.030Z,100.00
2022-09-28T08:01:19.232Z,100.00
2022-09-28T08:03:48.837Z,100.00
2022-09-28T08:06:18.494Z,100.00
2022-09-28T08:08:46.904Z,100.00
2022-09-28T08:11:16.847Z,100.00
2022-09-28T08:13:46.629Z,100.00
2022-09-28T08:16:14.966Z,100.00
2022-09-28T08:18:43.152Z,100.00
2022-09-28T08:21:30.019Z,100.00
2022-09-28T08:23:58.132Z,100.00
2022-09-28T08:26:26.422Z,100.00
2022-09-28T08:28:54.468Z,100.00
2022-09-28T08:31:22.782Z,100.00
2022-09-28T08:33:54.643Z,100.00
2022-09-28T08:36:24.211Z,100.00
2022-09-28T08:38:52.414Z,100.00
2022-09-28T08:41:26.039Z,100.00
2022-09-28T08:44:03.955Z,100.00
2022-09-28T08:46:35.704Z,100.00
2022-09-28T08:49:25.049Z,100.00
2022-09-28T08:51:59.721Z,100.00
2022-09-28T08:54:35.875Z,100.00
2022-09-28T08:57:07.066Z,100.00
2022-09-28T08:59:47.767Z,100.00
2022-09-28T09:02:18.772Z,100.00
2022-09-28T09:04:46.996Z,100.00
2022-09-28T09:07:51.257Z,100.00
2022-09-28T09:10:47.149Z,100.00
2022-09-28T09:13:30.984Z,100.00
2022-09-28T09:16:03.175Z,100.00
2022-09-28T09:18:42.835Z,100.00
2022-09-28T09:21:15.857Z,100.00
2022-09-28T09:23:55.519Z,100.00
2022-09-28T09:26:30.959Z,100.00
2022-09-28T09:29:15.017Z,100.00
2022-09-28T09:31:59.806Z,100.00
2022-09-28T09:35:05.722Z,100.00
2022-09-28T09:37:57.762Z,100.00
2022-09-28T09:40:37.817Z,100.00
2022-09-28T09:43:16.276Z,100.00
2022-09-28T09:45:55.115Z,100.00
2022-09-28T09:48:27.155Z,100.00
2022-09-28T09:50:58.724Z,100.00
2022-09-28T09:53:28.987Z,100.00
2022-09-28T09:56:03.924Z,100.00
2022-09-28T09:58:35.816Z,100.00
2022-09-28T10:01:09.821Z,99.35
2022-09-28T10:03:42.037Z,93.39
2022-09-28T10:06:13.326Z,83.97
2022-09-28T10:08:44.538Z,86.86
2022-09-28T10:11:17.080Z,82.25
2022-09-28T10:13:45.458Z,82.50
2022-09-28T10:16:13.885Z,85.65
2022-09-28T10:18:42.427Z,87.28
2022-09-28T10:21:14.559Z,88.43
2022-09-28T10:23:43.229Z,89.12
2022-09-28T10:26:16.198Z,86.29
2022-09-28T10:28:50.047Z,90.45
2022-09-28T10:31:38.563Z,91.74
2022-09-28T10:34:08.384Z,90.12
2022-09-28T10:36:47.687Z,86.88
2022-09-28T10:39:32.014Z,84.67
2022-09-28T10:42:04.551Z,82.63
2022-09-28T10:44:35.068Z,78.96
2022-09-28T10:47:05.776Z,75.97
2022-09-28T10:49:45.823Z,73.92
2022-09-28T10:52:33.349Z,70.27
2022-09-28T10:55:02.018Z,68.93
2022-09-28T10:57:36.918Z,69.62
2022-09-28T11:00:07.168Z,68.62
2022-09-28T11:02:36.926Z,68.79
2022-09-28T11:05:07.189Z,67.71
2022-09-28T11:07:46.311Z,66.82
2022-09-28T11:10:22.308Z,70.74
2022-09-28T11:12:52.600Z,74.88
2022-09-28T11:15:22.068Z,78.79
2022-09-28T11:17:50.449Z,83.80
2022-09-28T11:20:31.824Z,87.66
2022-09-28T11:23:00.888Z,90.74
2022-09-28T11:25:30.415Z,100.00
2022-09-28T11:28:01.854Z,100.00
2022-09-28T11:30:33.068Z,100.00
2022-09-28T11:33:05.558Z,100.00
2022-09-28T11:35:43.854Z,100.00
2022-09-28T11:38:22.682Z,100.00
2022-09-28T11:40:58.625Z,100.00
2022-09-28T11:43:49.774Z,100.00
2022-09-28T11:46:27.259Z,100.00
2022-09-28T11:48:57.994Z,100.00
2022-09-28T11:51:28.708Z,100.00
2022-09-28T11:54:00.343Z,100.00
2022-09-28T11:56:35.182Z,100.00
2022-09-28T11:59:10.125Z,99.71
2022-09-28T12:01:42.429Z,100.00
2022-09-28T12:04:14.162Z,97.13
2022-09-28T12:06:46.807Z,90.19
2022-09-28T12:09:19.993Z,89.09
2022-09-28T12:11:50.995Z,85.71
2022-09-28T12:14:24.995Z,84.59
2022-09-28T12:17:07.457Z,83.77
2022-09-28T12:19:40.300Z,81.86
2022-09-28T12:22:15.235Z,81.92
2022-09-28T12:24:45.866Z,77.99
2022-09-28T12:27:16.956Z,74.68
2022-09-28T12:29:48.801Z,73.26
2022-09-28T12:32:25.936Z,70.78
2022-09-28T12:34:54.178Z,68.98
2022-09-28T12:37:33.366Z,67.84
2022-09-28T12:40:26.521Z,67.46
2022-09-28T12:43:05.759Z,65.02
2022-09-28T12:46:06.759Z,62.88
2022-09-28T12:49:40.978Z,59.95
2022-09-28T12:51:50.678Z,59.54
2022-09-28T12:54:44.408Z,59.42
2022-09-28T12:57:31.609Z,60.11
2022-09-28T13:00:05.687Z,60.73
2022-09-28T13:03:02.517Z,62.09
2022-09-28T13:05:57.329Z,63.38
2022-09-28T13:08:32.406Z,63.92
2022-09-28T13:11:08.116Z,64.05
2022-09-28T13:13:46.304Z,63.98
2022-09-28T13:16:18.212Z,64.03
2022-09-28T13:18:52.287Z,64.07
2022-09-28T13:21:27.060Z,61.02
2022-09-28T13:24:08.751Z,58.31
2022-09-28T13:26:47.337Z,57.31
2022-09-28T13:29:18.024Z,60.31
2022-09-28T13:31:48.265Z,61.00
2022-09-28T13:34:22.630Z,57.62
2022-09-28T13:37:21.830Z,54.96
2022-09-28T13:39:52.993Z,55.14
2022-09-28T13:42:59.247Z,56.51
2022-09-28T13:45:52.524Z,59.09
2022-09-28T13:48:23.508Z,58.42
2022-09-28T13:51:06.265Z,59.47
2022-09-28T13:53:46.374Z,59.82
2022-09-28T13:56:25.911Z,61.12
2022-09-28T13:58:56.838Z,60.15
2022-09-28T14:01:27.983Z,60.21
2022-09-28T14:03:57.949Z,60.55
2022-09-28T14:06:33.795Z,58.63
2022-09-28T14:09:10.600Z,59.79
2022-09-28T14:11:44.307Z,60.05
2022-09-28T14:14:33.806Z,60.93
2022-09-28T14:17:47.996Z,61.98
2022-09-28T14:20:17.999Z,62.08
2022-09-28T14:23:10.914Z,62.49
2022-09-28T14:25:44.155Z,62.58
2022-09-28T14:28:31.184Z,63.23
2022-09-28T14:30:59.771Z,63.88
2022-09-28T14:33:29.928Z,64.46
2022-09-28T14:35:59.749Z,65.72
2022-09-28T14:38:49.967Z,65.90
2022-09-28T14:41:31.426Z,67.00
2022-09-28T14:44:05.899Z,68.03
2022-09-28T14:46:36.971Z,70.79
2022-09-28T14:49:07.455Z,71.58
2022-09-28T14:51:56.208Z,72.69
2022-09-28T14:54:26.789Z,73.39
2022-09-28T14:57:08.235Z,72.59
2022-09-28T14:59:43.700Z,72.61
2022-09-28T15:02:18.459Z,72.30
2022-09-28T15:04:49.901Z,71.92
2022-09-28T15:07:23.639Z,71.47
2022-09-28T15:09:54.165Z,69.33
2022-09-28T15:12:23.527Z,70.70
2022-09-28T15:14:53.948Z,69.88
2022-09-28T15:17:24.774Z,70.50
2022-09-28T15:20:18.671Z,70.48
2022-09-28T15:22:47.688Z,70.35
2022-09-28T15:25:20.015Z,70.65
2022-09-28T15:27:52.718Z,71.22
2022-09-28T15:30:25.487Z,70.45
2022-09-28T15:32:57.176Z,71.16
2022-09-28T15:35:26.668Z,71.60
2022-09-28T15:37:56.087Z,73.00
2022-09-28T15:40:32.914Z,72.83
2022-09-28T15:43:02.628Z,73.38
2022-09-28T15:45:33.839Z,74.28
2022-09-28T15:48:20.577Z,74.13
2022-09-28T15:50:59.519Z,74.32
2022-09-28T15:53:28.155Z,75.56
2022-09-28T15:56:10.121Z,76.18
2022-09-28T15:58:39.087Z,75.92
2022-09-28T16:01:29.523Z,76.75
2022-09-28T16:03:57.726Z,77.18
2022-09-28T16:06:25.859Z,77.98
2022-09-28T16:08:53.965Z,79.51
2022-09-28T16:11:26.413Z,79.76
2022-09-28T16:13:57.587Z,80.61
2022-09-28T16:16:28.295Z,83.43
2022-09-28T16:18:56.607Z,86.41
2022-09-28T16:21:40.847Z,85.92
2022-09-28T16:24:15.427Z,86.12
2022-09-28T16:26:44.917Z,91.15
2022-09-28T16:29:27.647Z,92.62
2022-09-28T16:31:55.928Z,95.90
2022-09-28T16:34:26.887Z,98.49
2022-09-28T16:36:55.167Z,100.00
2022-09-28T16:39:23.347Z,100.00
2022-09-28T16:41:55.529Z,100.00
2022-09-28T16:44:26.385Z,100.00
2022-09-28T16:46:57.161Z,100.00
2022-09-28T16:49:27.077Z,100.00
2022-09-28T16:51:55.314Z,100.00
2022-09-28T16:54:42.129Z,100.00
2022-09-28T16:57:13.356Z,100.00
2022-09-28T16:59:41.704Z,100.00
2022-09-28T17:02:42.564Z,100.00
2022-09-28T17:05:09.107Z,100.00
2022-09-28T17:07:37.387Z,100.00
2022-09-28T17:10:14.215Z,100.00
2022-09-28T17:12:43.697Z,100.00
2022-09-28T17:15:12.164Z,100.00
2022-09-28T17:17:40.664Z,100.00
2022-09-28T17:20:20.456Z,100.00
2022-09-28T17:22:48.635Z,100.00
2022-09-28T17:25:17.021Z,100.00
2022-09-28T17:27:48.237Z,100.00
2022-09-28T17:30:17.118Z,100.00
2022-09-28T17:32:47.383Z,100.00
2022-09-28T17:35:25.464Z,100.00
2022-09-28T17:37:54.917Z,100.00
2022-09-28T17:40:25.557Z,100.00
2022-09-28T17:42:56.878Z,100.00
2022-09-28T17:45:27.124Z,100.00
2022-09-28T17:47:55.927Z,100.00
2022-09-28T17:50:25.937Z,100.00
2022-09-28T17:52:55.157Z,100.00
2022-09-28T17:55:23.921Z,100.00
2022-09-28T17:57:52.409Z,100.00
2022-09-28T18:00:22.358Z,100.00
2022-09-28T18:02:52.138Z,100.00
2022-09-28T18:05:21.007Z,100.00
2022-09-28T18:07:50.409Z,100.00
2022-09-28T18:10:21.565Z,100.00
2022-09-28T18:12:51.224Z,100.00
2022-09-28T18:15:21.514Z,100.00
2022-09-28T18:17:49.936Z,100.00
2022-09-28T18:20:18.349Z,100.00
2022-09-28T18:22:46.647Z,100.00
2022-09-28T18:25:14.887Z,100.00
2022-09-28T18:27:43.429Z,100.00
2022-09-28T18:30:12.266Z,100.00
2022-09-28T18:32:41.940Z,100.00
2022-09-28T18:35:11.505Z,100.00
2022-09-28T18:37:40.515Z,100.00
2022-09-28T18:40:10.027Z,100.00
2022-09-28T18:42:38.287Z,100.00
2022-09-28T18:45:07.964Z,100.00
2022-09-28T18:47:36.347Z,100.00
2022-09-28T18:50:07.205Z,100.00
2022-09-28T18:52:37.617Z,100.00
2022-09-28T18:55:06.784Z,100.00
2022-09-28T18:57:35.472Z,100.00
2022-09-28T19:00:05.427Z,100.00
2022-09-28T19:02:33.822Z,100.00
2022-09-28T19:05:02.097Z,100.00
2022-09-28T19:07:31.867Z,100.00
2022-09-28T19:10:00.076Z,100.00
2022-09-28T19:12:28.366Z,100.00
2022-09-28T19:14:56.597Z,100.00
2022-09-28T19:17:24.854Z,100.00
2022-09-28T19:19:53.047Z,100.00
2022-09-28T19:22:21.259Z,100.00
2022-09-28T19:24:50.909Z,100.00
2022-09-28T19:27:19.135Z,100.00
2022-09-28T19:29:47.379Z,100.00
2022-09-28T19:32:15.643Z,100.00
2022-09-28T19:34:43.823Z,100.00
2022-09-28T19:37:12.088Z,100.00
2022-09-28T19:39:40.790Z,100.00
2022-09-28T19:42:10.472Z,100.00
2022-09-28T19:44:39.347Z,100.00
2022-09-28T19:47:10.197Z,100.00
2022-09-28T19:49:39.789Z,100.00
2022-09-28T19:52:14.664Z,100.00
2022-09-28T19:54:45.111Z,100.00
2022-09-28T19:57:16.187Z,100.00
2022-09-28T20:00:09.918Z,100.00
2022-09-28T20:02:38.239Z,100.00
2022-09-28T20:05:07.018Z,100.00
2022-09-28T20:07:36.349Z,100.00
2022-09-28T20:10:04.918Z,100.00
2022-09-28T20:12:34.803Z,100.00
2022-09-28T20:15:03.022Z,100.00
2022-09-28T20:17:31.247Z,100.00
2022-09-28T20:19:59.449Z,100.00
2022-09-28T20:22:27.668Z,100.00
2022-09-28T20:24:55.859Z,100.00
2022-09-28T20:27:26.499Z,100.00
2022-09-28T20:29:56.247Z,100.00
2022-09-28T20:32:24.450Z,100.00
2022-09-28T20:34:52.688Z,100.00
2022-09-28T20:37:20.907Z,100.00
2022-09-28T20:39:49.136Z,100.00
2022-09-28T20:42:17.898Z,100.00
2022-09-28T20:44:46.178Z,100.00
2022-09-28T20:47:15.829Z,100.00
2022-09-28T20:49:44.588Z,100.00
2022-09-28T20:52:12.844Z,100.00
2022-09-28T20:54:41.077Z,100.00
2022-09-28T20:57:17.670Z,100.00
2022-09-28T20:59:47.875Z,100.00
2022-09-28T21:02:20.573Z,100.00
2022-09-28T21:04:48.828Z,100.00
2022-09-28T21:07:16.999Z,100.00
2022-09-28T21:09:45.238Z,100.00
2022-09-28T21:12:15.512Z,100.00
2022-09-28T21:14:43.727Z,100.00
2022-09-28T21:17:11.907Z,100.00
2022-09-28T21:19:41.587Z,100.00
2022-09-28T21:22:09.727Z,100.00
2022-09-28T21:24:38.288Z,100.00
2022-09-28T21:27:06.456Z,100.00
2022-09-28T21:29:35.047Z,100.00
2022-09-28T21:32:03.479Z,100.00
2022-09-28T21:34:31.688Z,100.00
2022-09-28T21:37:01.366Z,100.00
2022-09-28T21:39:29.562Z,100.00
2022-09-28T21:41:57.729Z,100.00
2022-09-28T21:44:26.419Z,100.00
2022-09-28T21:46:54.711Z,100.00
2022-09-28T21:49:23.359Z,100.00
2022-09-28T21:51:52.718Z,100.00
2022-09-28T21:54:22.749Z,100.00
2022-09-28T21:56:50.949Z,100.00
2022-09-28T21:59:19.257Z,100.00
2022-09-28T22:01:48.339Z,100.00
2022-09-28T22:04:16.731Z,100.00
2022-09-28T22:06:44.899Z,100.00
2022-09-28T22:09:13.118Z,100.00
2022-09-28T22:11:42.880Z,100.00
2022-09-28T22:14:11.850Z,100.00
2022-09-28T22:16:40.825Z,100.00
2022-09-28T22:19:09.145Z,100.00
2022-09-28T22:21:37.287Z,100.00
2022-09-28T22:24:07.277Z,100.00
2022-09-28T22:26:37.554Z,100.00
2022-09-28T22:29:08.821Z,100.00
2022-09-28T22:31:38.406Z,100.00
2022-09-28T22:34:07.135Z,100.00
2022-09-28T22:36:35.388Z,100.00
2022-09-28T22:39:03.820Z,100.00
2022-09-28T22:41:32.320Z,100.00
2022-09-28T22:44:00.859Z,100.00
2022-09-28T22:46:32.064Z,100.00
2022-09-28T22:49:00.989Z,100.00
2022-09-28T22:51:30.613Z,100.00
2022-09-28T22:53:58.974Z,100.00
2022-09-28T22:56:27.209Z,100.00
2022-09-28T22:58:55.427Z,100.00
2022-09-28T23:01:25.135Z,100.00
2022-09-28T23:03:55.836Z,100.00
2022-09-28T23:06:26.106Z,100.00
2022-09-28T23:08:54.614Z,100.00
2022-09-28T23:11:22.797Z,100.00
2022-09-28T23:13:51.779Z,100.00
2022-09-28T23:16:20.623Z,100.00
2022-09-28T23:18:49.442Z,100.00
2022-09-28T23:21:22.616Z,100.00
2022-09-28T23:23:55.306Z,100.00
2022-09-28T23:26:25.168Z,100.00
2022-09-28T23:28:54.090Z,100.00
2022-09-28T23:31:23.569Z,100.00
2022-09-28T23:33:51.848Z,100.00
2022-09-28T23:36:22.132Z,100.00
2022-09-28T23:38:50.597Z,100.00
2022-09-28T23:41:19.187Z,100.00
2022-09-28T23:43:47.428Z,100.00
2022-09-28T23:46:20.475Z,100.00
2022-09-28T23:48:49.642Z,100.00
2022-09-28T23:51:17.924Z,100.00
2022-09-28T23:53:47.827Z,100.00
2022-09-28T23:56:16.077Z,100.00
2022-09-28T23:58:44.387Z,100.00
